Time;durP1;ratioP1;P1;durP2;ratioP2;P2;SDS_P1;SDS_P2;PMS_P1;PMS_P2;Temp;Humidity;BMP_temperature;BMP_pressure;BME280_temperature;BME280_humidity;BME280_pressure;Samples;Min_cycle;Max_cycle;Signal;HPM_P1;HPM_P2
2021/10/17 00:02:03;;;;;;;31.37;25.77;;;;;;;10.03;80.51;100823.78;4868398;29;20422;-75
2021/10/17 00:04:28;;;;;;;30.15;24.48;;;;;;;10.04;80.39;100820.03;4844205;29;20449;-74
2021/10/17 00:06:53;;;;;;;32.63;25.53;;;;;;;10.05;80.55;100819.78;4838120;29;20426;-74
2021/10/17 00:09:18;;;;;;;33.50;26.02;;;;;;;10.07;80.58;100822.28;4859379;29;20833;-74
2021/10/17 00:11:44;;;;;;;33.80;26.10;;;;;;;10.08;80.32;100819.31;4858199;29;20438;-75
2021/10/17 00:14:09;;;;;;;32.45;25.98;;;;;;;10.09;80.48;100812.84;4858888;29;20977;-74
2021/10/17 00:16:34;;;;;;;36.77;27.67;;;;;;;10.10;80.59;100821.81;4857054;29;20414;-74
2021/10/17 00:18:59;;;;;;;32.78;25.58;;;;;;;10.13;80.40;100822.16;4858917;29;20394;-75
2021/10/17 00:21:25;;;;;;;36.13;27.00;;;;;;;10.12;80.57;100815.09;4858923;29;20898;-74
2021/10/17 00:23:50;;;;;;;33.13;25.97;;;;;;;10.14;80.87;100814.91;4841908;29;20422;-75
2021/10/17 00:26:15;;;;;;;32.60;25.97;;;;;;;10.16;80.78;100819.00;4854778;29;20466;-75
2021/10/17 00:28:40;;;;;;;35.57;26.30;;;;;;;10.19;80.85;100820.44;4858952;29;20433;-75
2021/10/17 00:31:06;;;;;;;34.03;25.87;;;;;;;10.18;80.95;100816.88;4860110;29;20429;-74
2021/10/17 00:33:31;;;;;;;33.47;25.90;;;;;;;10.20;80.72;100816.66;4859182;29;20524;-75
2021/10/17 00:35:56;;;;;;;36.93;26.93;;;;;;;10.20;81.04;100812.09;4855480;29;20430;-74
2021/10/17 00:38:22;;;;;;;34.87;26.97;;;;;;;10.22;81.05;100817.25;4857233;29;20449;-75
2021/10/17 00:40:47;;;;;;;33.80;26.53;;;;;;;10.23;80.97;100819.75;4860103;29;20402;-75
2021/10/17 00:43:12;;;;;;;33.58;25.73;;;;;;;10.24;80.90;100812.44;4858778;29;20430;-75
2021/10/17 00:45:38;;;;;;;32.07;25.33;;;;;;;10.24;81.05;100807.81;4844680;29;20477;-75
2021/10/17 00:48:04;;;;;;;32.35;25.58;;;;;;;10.24;81.12;100815.94;4853990;29;20898;-74
2021/10/17 00:50:30;;;;;;;34.67;26.60;;;;;;;10.26;81.23;100811.13;4857620;29;20446;-75
2021/10/17 00:52:56;;;;;;;37.20;26.58;;;;;;;10.29;81.11;100801.72;4853767;29;20442;-75
2021/10/17 00:55:24;;;;;;;35.53;27.13;;;;;;;10.30;80.98;100812.34;4856263;29;20512;-75
2021/10/17 00:57:49;;;;;;;36.53;27.20;;;;;;;10.30;81.21;100809.63;4858039;29;20430;-75
2021/10/17 01:00:16;;;;;;;35.97;26.63;;;;;;;10.32;81.45;100806.66;4853561;29;20569;-74
2021/10/17 01:02:42;;;;;;;32.72;25.73;;;;;;;10.34;81.28;100809.97;4833325;29;20760;-74
2021/10/17 01:05:16;;;;;;;38.10;27.33;;;;;;;10.34;81.42;100815.41;4839618;29;20418;-75
2021/10/17 01:07:41;;;;;;;35.00;26.27;;;;;;;10.35;81.43;100798.06;4854692;29;20898;-74
2021/10/17 01:10:07;;;;;;;36.80;26.43;;;;;;;10.37;81.71;100806.78;4857417;29;20474;-74
2021/10/17 01:12:32;;;;;;;38.90;27.50;;;;;;;10.35;81.75;100798.88;4854385;29;20508;-74
2021/10/17 01:14:58;;;;;;;33.30;25.07;;;;;;;10.36;81.64;100799.72;4837164;29;20426;-75
2021/10/17 01:17:23;;;;;;;32.07;24.03;;;;;;;10.38;81.60;100797.59;4851517;29;20437;-75
2021/10/17 01:19:48;;;;;;;32.80;25.93;;;;;;;10.40;81.67;100798.19;4857477;29;20430;-74
2021/10/17 01:22:14;;;;;;;38.30;27.55;;;;;;;10.39;82.01;100788.41;4853316;29;20425;-74
2021/10/17 01:24:40;;;;;;;34.05;26.38;;;;;;;10.40;81.94;100793.59;4853481;29;20434;-74
2021/10/17 01:27:05;;;;;;;31.97;24.27;;;;;;;10.43;81.74;100794.19;4856479;29;20481;-74
2021/10/17 01:29:30;;;;;;;31.37;23.83;;;;;;;10.44;81.59;100788.50;4841033;29;20539;-74
2021/10/17 01:31:56;;;;;;;37.20;25.80;;;;;;;10.42;81.96;100787.94;4857834;29;20434;-74
2021/10/17 01:34:24;;;;;;;32.53;25.30;;;;;;;10.41;82.24;100780.84;4854684;29;21411;-74
2021/10/17 01:36:50;;;;;;;39.20;27.65;;;;;;;10.41;82.13;100778.16;4855284;29;20442;-74
2021/10/17 01:39:18;;;;;;;36.55;25.80;;;;;;;10.43;82.01;100770.63;4857425;29;20483;-75
2021/10/17 01:41:44;;;;;;;32.67;25.63;;;;;;;10.45;81.90;100782.03;4855808;29;20790;-74
2021/10/17 01:44:12;;;;;;;35.70;26.42;;;;;;;10.47;82.03;100773.69;4863818;29;20441;-75
2021/10/17 01:46:37;;;;;;;37.22;27.27;;;;;;;10.46;82.21;100766.63;4853034;29;20434;-75
2021/10/17 01:49:05;;;;;;;38.03;26.60;;;;;;;10.45;82.21;100771.19;4858776;29;20776;-74
2021/10/17 01:51:30;;;;;;;38.80;27.03;;;;;;;10.46;82.54;100769.31;4858376;29;20478;-75
2021/10/17 01:53:56;;;;;;;35.37;27.20;;;;;;;10.46;82.28;100769.31;4858844;29;20902;-74
2021/10/17 01:56:21;;;;;;;33.13;24.50;;;;;;;10.45;82.16;100773.91;4857865;29;20410;-75
2021/10/17 01:58:46;;;;;;;34.13;26.03;;;;;;;10.48;82.03;100767.19;4858268;29;20425;-74
2021/10/17 02:01:12;;;;;;;30.30;24.30;;;;;;;10.49;82.12;100766.97;4858785;29;20423;-74
2021/10/17 02:03:37;;;;;;;34.07;24.83;;;;;;;10.45;82.35;100760.38;4841463;29;20406;-75
2021/10/17 02:06:02;;;;;;;33.90;25.83;;;;;;;10.47;82.21;100762.84;4858063;29;20410;-75
2021/10/17 02:08:29;;;;;;;32.10;25.23;;;;;;;10.47;82.45;100760.97;4858475;29;20417;-74
2021/10/17 02:10:54;;;;;;;33.90;25.73;;;;;;;10.47;82.25;100766.41;4841667;29;20422;-74
2021/10/17 02:13:20;;;;;;;33.65;25.20;;;;;;;10.47;82.34;100766.41;4858887;29;20558;-74
2021/10/17 02:15:45;;;;;;;33.80;24.30;;;;;;;10.48;82.27;100765.31;4857888;29;20411;-75
2021/10/17 02:18:10;;;;;;;31.33;22.57;;;;;;;10.49;82.30;100760.72;4858456;29;20957;-75
2021/10/17 02:20:36;;;;;;;31.13;23.60;;;;;;;10.49;82.17;100758.84;4824403;29;20422;-75
2021/10/17 02:23:04;;;;;;;31.53;24.73;;;;;;;10.49;82.13;100760.72;4860817;29;20421;-75
2021/10/17 02:25:30;;;;;;;32.03;23.73;;;;;;;10.49;82.34;100761.56;4861228;29;20418;-74
2021/10/17 02:27:55;;;;;;;31.60;23.90;;;;;;;10.47;82.25;100763.69;4861867;29;20422;-74
2021/10/17 02:30:21;;;;;;;33.10;23.87;;;;;;;10.48;82.34;100761.78;4862038;29;20820;-75
2021/10/17 02:32:46;;;;;;;29.77;22.58;;;;;;;10.48;82.38;100765.31;4861741;29;20434;-74
2021/10/17 02:35:11;;;;;;;36.28;26.48;;;;;;;10.50;82.38;100760.50;4861427;29;20501;-75
2021/10/17 02:37:37;;;;;;;37.30;26.73;;;;;;;10.48;82.51;100765.31;4861508;29;20426;-74
2021/10/17 02:40:04;;;;;;;32.15;24.77;;;;;;;10.46;82.38;100761.19;4854151;29;20509;-74
2021/10/17 02:42:29;;;;;;;36.85;25.50;;;;;;;10.48;82.36;100761.78;4861377;29;20921;-74
2021/10/17 02:44:54;;;;;;;37.70;25.00;;;;;;;10.51;82.32;100755.88;4840958;29;20513;-75
2021/10/17 02:47:20;;;;;;;40.70;28.70;;;;;;;10.53;82.20;100757.31;4861717;29;20432;-74
2021/10/17 02:49:45;;;;;;;44.73;30.30;;;;;;;10.54;82.02;100763.56;4863724;29;20426;-75
2021/10/17 02:52:10;;;;;;;41.72;29.38;;;;;;;10.55;82.04;100767.91;4853899;29;20437;-75
2021/10/17 02:54:35;;;;;;;36.47;27.77;;;;;;;10.53;82.18;100764.63;4860217;29;20434;-75
2021/10/17 02:57:03;;;;;;;41.17;29.00;;;;;;;10.51;82.12;100767.53;4858389;29;20893;-74
2021/10/17 02:59:28;;;;;;;39.30;27.03;;;;;;;10.51;82.39;100758.59;4859914;29;20430;-75
2021/10/17 03:01:53;;;;;;;37.93;27.23;;;;;;;10.53;82.23;100760.03;4845240;29;20422;-74
2021/10/17 03:04:19;;;;;;;41.63;28.40;;;;;;;10.55;82.27;100771.44;4844881;29;20437;-75
2021/10/17 03:06:44;;;;;;;39.70;28.65;;;;;;;10.57;82.17;100768.50;4844756;29;20521;-75
2021/10/17 03:09:09;;;;;;;51.37;32.00;;;;;;;10.57;82.31;100769.31;4844632;29;20442;-75
2021/10/17 03:11:35;;;;;;;48.45;33.33;;;;;;;10.58;82.30;100765.53;4846310;29;20427;-75
2021/10/17 03:14:01;;;;;;;52.67;33.33;;;;;;;10.58;82.35;100772.84;4844043;29;20913;-75
2021/10/17 03:16:26;;;;;;;52.83;32.75;;;;;;;10.57;82.30;100765.78;4845793;29;20996;-75
2021/10/17 03:18:52;;;;;;;54.27;36.93;;;;;;;10.58;82.30;100759.28;4848617;29;20429;-74
2021/10/17 03:21:17;;;;;;;48.27;34.30;;;;;;;10.57;82.42;100757.66;4848437;29;20441;-76
2021/10/17 03:23:43;;;;;;;50.85;33.58;;;;;;;10.56;82.53;100750.59;4855321;29;20447;-75
2021/10/17 03:26:08;;;;;;;51.13;33.67;;;;;;;10.56;82.42;100756.00;4859748;29;20512;-75
2021/10/17 03:28:33;;;;;;;48.70;33.00;;;;;;;10.57;82.27;100746.81;4857534;29;20786;-75
2021/10/17 03:30:58;;;;;;;47.73;33.47;;;;;;;10.59;82.38;100747.41;4857784;29;20485;-75
2021/10/17 03:33:24;;;;;;;51.20;33.87;;;;;;;10.55;82.56;100741.63;4858788;29;20917;-75
2021/10/17 03:35:49;;;;;;;50.87;33.17;;;;;;;10.55;82.62;100738.09;4844238;29;20433;-75
2021/10/17 03:38:15;;;;;;;51.53;34.53;;;;;;;10.55;82.64;100740.81;4844207;29;20793;-75
2021/10/17 03:40:40;;;;;;;48.38;32.70;;;;;;;10.55;82.73;100736.22;4860614;29;20422;-75
2021/10/17 03:43:05;;;;;;;45.67;32.03;;;;;;;10.57;82.54;100735.97;4842393;29;20422;-75
2021/10/17 03:45:31;;;;;;;48.33;32.03;;;;;;;10.57;82.35;100736.78;4860629;29;20824;-75
2021/10/17 03:47:57;;;;;;;43.58;31.23;;;;;;;10.58;82.54;100743.03;4858956;29;20576;-75
2021/10/17 03:50:22;;;;;;;43.25;30.95;;;;;;;10.57;82.44;100735.97;4860650;29;20425;-75
2021/10/17 03:52:47;;;;;;;41.43;29.80;;;;;;;10.59;82.36;100741.97;4859963;29;20430;-75
2021/10/17 03:55:12;;;;;;;41.50;30.07;;;;;;;10.57;82.30;100739.50;4860531;29;20835;-75
2021/10/17 03:57:38;;;;;;;43.50;30.77;;;;;;;10.57;82.31;100741.41;4857959;29;20418;-75
2021/10/17 04:00:04;;;;;;;46.65;30.98;;;;;;;10.56;82.14;100747.88;4860331;29;20936;-75
2021/10/17 04:02:29;;;;;;;50.95;32.42;;;;;;;10.53;82.19;100751.06;4859509;29;20414;-75
2021/10/17 04:04:54;;;;;;;48.97;32.07;;;;;;;10.50;82.11;100751.53;4860488;29;20494;-75
2021/10/17 04:07:20;;;;;;;52.57;32.47;;;;;;;10.49;82.14;100752.59;4858633;29;20434;-74
2021/10/17 04:09:45;;;;;;;55.27;33.27;;;;;;;10.49;82.01;100748.00;4859012;29;20441;-74
2021/10/17 04:12:10;;;;;;;51.73;33.70;;;;;;;10.47;82.05;100750.13;4858764;29;20954;-75
2021/10/17 04:14:35;;;;;;;54.43;32.63;;;;;;;10.44;82.23;100745.16;4843711;29;20422;-75
2021/10/17 04:17:01;;;;;;;56.07;33.00;;;;;;;10.42;81.85;100747.28;4860051;29;20451;-75
2021/10/17 04:19:26;;;;;;;58.03;35.23;;;;;;;10.41;81.97;100743.75;4859910;29;20422;-75
2021/10/17 04:21:51;;;;;;;60.07;34.53;;;;;;;10.39;81.77;100739.66;4859518;29;20457;-75
2021/10/17 04:24:16;;;;;;;53.63;32.83;;;;;;;10.38;81.55;100749.66;4842520;29;20488;-75
2021/10/17 04:26:42;;;;;;;57.70;34.30;;;;;;;10.38;81.91;100737.97;4841345;29;20993;-74
2021/10/17 04:29:07;;;;;;;61.07;32.90;;;;;;;10.36;81.71;100738.25;4860011;29;20422;-75
2021/10/17 04:31:32;;;;;;;58.80;33.05;;;;;;;10.35;81.64;100741.16;4859021;29;20581;-75
2021/10/17 04:33:58;;;;;;;57.17;32.57;;;;;;;10.35;81.38;100739.28;4859974;29;20453;-74
2021/10/17 04:36:23;;;;;;;52.53;32.07;;;;;;;10.31;81.73;100735.41;4859132;29;20464;-75
2021/10/17 04:38:51;;;;;;;53.73;31.57;;;;;;;10.30;81.84;100741.06;4859658;29;20426;-75
2021/10/17 04:41:16;;;;;;;54.10;31.73;;;;;;;10.29;81.83;100742.13;4858139;29;20921;-75
2021/10/17 04:43:42;;;;;;;56.58;32.53;;;;;;;10.26;81.78;100742.59;4859600;29;20419;-75
2021/10/17 04:46:08;;;;;;;58.33;33.30;;;;;;;10.25;81.84;100738.22;4859337;29;20910;-75
2021/10/17 04:48:33;;;;;;;58.63;31.48;;;;;;;10.25;81.76;100740.94;4858968;29;20437;-74
2021/10/17 04:50:58;;;;;;;58.17;31.97;;;;;;;10.22;81.56;100736.81;4858919;29;20447;-75
2021/10/17 04:53:24;;;;;;;52.43;30.90;;;;;;;10.24;81.75;100739.31;4859524;29;20425;-74
2021/10/17 04:55:49;;;;;;;52.27;30.30;;;;;;;10.24;81.72;100736.59;4841282;29;20426;-75
2021/10/17 04:58:14;;;;;;;59.53;32.37;;;;;;;10.25;81.61;100733.63;4859368;29;20415;-75
2021/10/17 05:00:40;;;;;;;58.17;31.37;;;;;;;10.22;81.81;100726.00;4858791;29;20414;-75
2021/10/17 05:03:05;;;;;;;55.07;32.23;;;;;;;10.23;81.87;100729.53;4842649;29;20581;-75
2021/10/17 05:05:30;;;;;;;53.60;31.87;;;;;;;10.23;81.86;100734.94;4842702;29;20415;-74
2021/10/17 05:07:55;;;;;;;52.43;30.63;;;;;;;10.23;81.97;100724.09;4842632;29;20415;-75
2021/10/17 05:10:21;;;;;;;57.17;32.13;;;;;;;10.25;81.77;100736.34;4856705;29;20430;-75
2021/10/17 05:12:46;;;;;;;54.03;31.40;;;;;;;10.25;81.71;100739.06;4858297;29;20940;-75
2021/10/17 05:15:11;;;;;;;56.30;31.40;;;;;;;10.24;82.17;100737.41;4842280;29;20406;-75
2021/10/17 05:17:36;;;;;;;53.10;30.60;;;;;;;10.23;82.09;100734.94;4858063;29;20426;-74
2021/10/17 05:20:03;;;;;;;62.53;32.87;;;;;;;10.23;81.98;100733.06;4859153;29;20418;-75
2021/10/17 05:22:28;;;;;;;55.35;30.70;;;;;;;10.25;81.89;100735.53;4858042;29;20840;-75
2021/10/17 05:24:53;;;;;;;54.30;31.97;;;;;;;10.25;82.31;100738.22;4842430;29;20517;-75
2021/10/17 05:27:19;;;;;;;53.42;32.22;;;;;;;10.24;82.20;100737.41;4858510;29;20422;-74
2021/10/17 05:29:44;;;;;;;55.73;32.43;;;;;;;10.25;82.13;100739.06;4842468;29;20418;-75
2021/10/17 05:32:09;;;;;;;52.75;30.75;;;;;;;10.26;82.35;100745.31;4833949;29;20929;-75
2021/10/17 05:34:34;;;;;;;55.10;31.10;;;;;;;10.27;82.10;100742.34;4856900;29;20410;-74
2021/10/17 05:37:00;;;;;;;56.20;32.27;;;;;;;10.27;82.17;100744.25;4858870;29;20767;-75
2021/10/17 05:39:25;;;;;;;54.67;33.77;;;;;;;10.26;82.25;100746.13;4858885;29;20449;-75
2021/10/17 05:41:50;;;;;;;57.33;33.80;;;;;;;10.24;82.30;100756.34;4841334;29;20774;-75
2021/10/17 05:44:15;;;;;;;59.77;33.50;;;;;;;10.25;82.36;100751.78;4858607;29;20471;-75
2021/10/17 05:46:41;;;;;;;54.07;31.83;;;;;;;10.25;82.25;100760.72;4857468;29;20440;-75
2021/10/17 05:49:06;;;;;;;63.83;34.30;;;;;;;10.27;82.58;100757.78;4842183;29;20430;-74
2021/10/17 05:51:32;;;;;;;59.73;34.70;;;;;;;10.29;82.51;100761.09;4857723;29;20525;-75
2021/10/17 05:53:58;;;;;;;62.28;34.15;;;;;;;10.28;82.33;100760.25;4841954;29;20501;-75
2021/10/17 05:56:23;;;;;;;57.03;33.87;;;;;;;10.29;82.21;100771.91;4859316;29;20539;-75
2021/10/17 05:58:48;;;;;;;58.13;34.73;;;;;;;10.29;82.13;100769.22;4864317;29;20422;-75
2021/10/17 06:01:14;;;;;;;60.90;34.30;;;;;;;10.26;82.53;100770.50;4861371;29;20489;-75
2021/10/17 06:03:39;;;;;;;67.83;37.17;;;;;;;10.26;82.58;100773.22;4864800;29;20508;-75
2021/10/17 06:06:06;;;;;;;68.47;35.97;;;;;;;10.28;82.52;100781.09;4864291;29;20433;-74
2021/10/17 06:08:31;;;;;;;62.78;34.95;;;;;;;10.27;82.36;100785.69;4864450;29;20482;-74
2021/10/17 06:10:56;;;;;;;69.13;36.83;;;;;;;10.26;82.50;100786.75;4847497;29;20414;-74
2021/10/17 06:13:22;;;;;;;70.28;37.35;;;;;;;10.28;82.70;100792.75;4847182;29;20429;-75
2021/10/17 06:15:47;;;;;;;63.97;35.40;;;;;;;10.28;82.77;100800.88;4862972;29;20767;-75
2021/10/17 06:18:13;;;;;;;66.37;35.77;;;;;;;10.28;82.91;100803.59;4847869;29;20473;-75
2021/10/17 06:20:38;;;;;;;68.30;35.63;;;;;;;10.31;82.90;100805.00;4863704;29;20419;-75
2021/10/17 06:23:03;;;;;;;63.83;33.77;;;;;;;10.30;82.71;100804.19;4847982;29;20985;-76
2021/10/17 06:25:29;;;;;;;61.00;33.33;;;;;;;10.32;82.68;100810.19;4847799;29;20418;-75
2021/10/17 06:27:55;;;;;;;61.50;33.13;;;;;;;10.34;82.67;100820.81;4864461;29;20554;-75
2021/10/17 06:30:21;;;;;;;60.47;33.22;;;;;;;10.31;82.75;100813.97;4861490;29;20429;-75
2021/10/17 06:32:46;;;;;;;68.00;33.67;;;;;;;10.32;83.32;100818.31;4861927;29;20517;-74
2021/10/17 06:35:13;;;;;;;55.57;31.10;;;;;;;10.31;82.88;100813.13;4863809;29;20414;-75
2021/10/17 06:37:39;;;;;;;54.00;31.50;;;;;;;10.26;83.07;100829.28;4863531;29;20827;-75
2021/10/17 06:40:05;;;;;;;57.03;30.97;;;;;;;10.25;82.89;100825.72;4862993;29;20509;-75
2021/10/17 06:42:30;;;;;;;53.08;30.17;;;;;;;10.31;83.10;100821.25;4847362;29;20497;-75
2021/10/17 06:44:56;;;;;;;52.03;29.30;;;;;;;10.32;83.18;100825.63;4862850;29;20434;-74
2021/10/17 06:47:21;;;;;;;54.87;31.27;;;;;;;10.33;82.98;100820.00;4861872;29;20422;-75
2021/10/17 06:49:46;;;;;;;56.30;30.20;;;;;;;10.35;82.74;100825.16;4863561;29;20416;-74
2021/10/17 06:52:11;;;;;;;52.43;28.20;;;;;;;10.34;82.90;100824.31;4847962;29;20449;-74
2021/10/17 06:54:37;;;;;;;51.27;28.90;;;;;;;10.37;82.96;100825.75;4845070;29;20488;-75
2021/10/17 06:57:02;;;;;;;51.93;28.50;;;;;;;10.38;82.60;100825.50;4847064;29;20523;-75
2021/10/17 06:59:27;;;;;;;51.67;29.37;;;;;;;10.40;83.02;100834.25;4847280;29;20853;-75
2021/10/17 07:01:53;;;;;;;52.00;28.77;;;;;;;10.44;82.92;100841.91;4860930;29;20458;-74
2021/10/17 07:04:18;;;;;;;59.47;30.70;;;;;;;10.45;82.85;100836.22;4846442;29;20830;-75
2021/10/17 07:06:44;;;;;;;54.97;29.00;;;;;;;10.46;82.61;100842.47;4862743;29;20422;-74
2021/10/17 07:09:10;;;;;;;52.67;28.75;;;;;;;10.43;82.65;100842.94;4860168;29;20426;-75
2021/10/17 07:11:35;;;;;;;50.87;29.77;;;;;;;10.40;83.19;100838.84;4846343;29;20452;-75
2021/10/17 07:14:01;;;;;;;52.30;27.57;;;;;;;10.39;83.14;100843.44;4844142;29;20524;-75
2021/10/17 07:16:26;;;;;;;55.92;28.77;;;;;;;10.41;82.94;100849.41;4857508;29;20437;-74
2021/10/17 07:18:51;;;;;;;47.30;26.83;;;;;;;10.44;82.90;100852.75;4860857;29;20418;-75
2021/10/17 07:21:17;;;;;;;52.45;26.75;;;;;;;10.44;82.71;100852.75;4858721;29;20458;-74
2021/10/17 07:23:42;;;;;;;51.90;27.60;;;;;;;10.45;82.90;100848.94;4859642;29;20950;-74
2021/10/17 07:26:07;;;;;;;53.15;28.17;;;;;;;10.48;82.80;100852.03;4843627;29;20505;-74
2021/10/17 07:28:32;;;;;;;56.20;28.40;;;;;;;10.48;82.85;100854.72;4859400;29;20914;-74
2021/10/17 07:30:58;;;;;;;53.03;27.33;;;;;;;10.45;83.05;100854.38;4840251;29;20948;-74
2021/10/17 07:33:23;;;;;;;50.73;27.50;;;;;;;10.45;83.00;100859.78;4858690;29;20448;-74
2021/10/17 07:35:48;;;;;;;50.73;28.50;;;;;;;10.47;83.13;100854.97;4859168;29;20481;-74
2021/10/17 07:38:14;;;;;;;50.07;28.07;;;;;;;10.49;82.94;100852.84;4860597;29;20442;-74
2021/10/17 07:40:39;;;;;;;48.03;26.38;;;;;;;10.48;82.77;100853.91;4860434;29;20811;-74
2021/10/17 07:43:04;;;;;;;43.90;26.20;;;;;;;10.49;83.00;100860.97;4844140;29;20427;-74
2021/10/17 07:45:32;;;;;;;49.85;28.15;;;;;;;10.46;83.05;100856.03;4858364;29;20434;-74
2021/10/17 07:47:57;;;;;;;43.03;25.65;;;;;;;10.45;83.12;100860.63;4838811;29;20823;-74
2021/10/17 07:50:22;;;;;;;45.33;25.67;;;;;;;10.50;83.16;100855.34;4859354;29;20422;-75
2021/10/17 07:52:47;;;;;;;43.93;26.07;;;;;;;10.51;82.80;100858.84;4850696;29;20462;-74
2021/10/17 07:55:13;;;;;;;45.20;25.87;;;;;;;10.53;83.02;100856.75;4857025;29;20426;-74
2021/10/17 07:57:48;;;;;;;44.53;26.27;;;;;;;10.55;82.95;100851.91;4840944;29;20924;-74
2021/10/17 08:00:17;;;;;;;48.92;26.50;;;;;;;10.57;82.61;100850.59;4858671;29;20406;-74
2021/10/17 08:02:42;;;;;;;47.63;27.08;;;;;;;10.56;82.79;100859.81;4841823;29;20409;-74
2021/10/17 08:05:08;;;;;;;45.93;26.87;;;;;;;10.59;82.70;100856.63;4852079;29;20436;-75
2021/10/17 08:07:33;;;;;;;45.23;26.23;;;;;;;10.61;82.60;100859.91;4853426;29;20426;-75
2021/10/17 08:09:59;;;;;;;48.07;26.60;;;;;;;10.64;82.66;100862.16;4858434;29;20744;-74
2021/10/17 08:12:25;;;;;;;45.22;26.48;;;;;;;10.67;82.52;100858.19;4859436;29;20438;-74
2021/10/17 08:14:50;;;;;;;42.57;23.23;;;;;;;10.73;82.53;100862.66;4857966;29;20447;-74
2021/10/17 08:17:15;;;;;;;37.97;23.80;;;;;;;10.76;82.30;100865.72;4841375;29;20441;-73
2021/10/17 08:19:41;;;;;;;38.40;22.73;;;;;;;10.76;82.16;100863.00;4839819;29;20530;-74
2021/10/17 08:22:06;;;;;;;36.97;23.27;;;;;;;10.74;82.32;100862.41;4858626;29;20462;-74
2021/10/17 08:24:31;;;;;;;39.17;23.13;;;;;;;10.72;82.39;100867.25;4859468;29;20418;-74
2021/10/17 08:26:56;;;;;;;37.80;22.40;;;;;;;10.74;82.31;100869.69;4856716;29;20430;-74
2021/10/17 08:29:22;;;;;;;36.03;21.67;;;;;;;10.77;82.75;100871.94;4855818;29;20967;-75
2021/10/17 08:31:47;;;;;;;32.53;21.80;;;;;;;10.78;82.44;100870.88;4857865;29;20481;-74
2021/10/17 08:34:12;;;;;;;37.83;22.40;;;;;;;10.77;82.22;100878.19;4859338;29;20453;-74
2021/10/17 08:36:38;;;;;;;34.50;21.90;;;;;;;10.78;82.10;100869.00;4844775;29;20449;-74
2021/10/17 08:39:03;;;;;;;37.70;22.37;;;;;;;10.80;81.96;100869.56;4859841;29;20925;-74
2021/10/17 08:41:28;;;;;;;40.73;23.67;;;;;;;10.84;82.14;100873.47;4854150;29;20493;-74
2021/10/17 08:43:53;;;;;;;44.50;24.60;;;;;;;10.87;82.27;100874.88;4858703;29;20775;-74
2021/10/17 08:46:20;;;;;;;37.27;23.30;;;;;;;10.88;82.07;100876.53;4853274;29;20790;-73
2021/10/17 08:48:50;;;;;;;38.20;23.15;;;;;;;10.86;81.76;100871.38;4857431;29;20422;-74
2021/10/17 08:51:16;;;;;;;36.63;22.13;;;;;;;10.87;81.85;100878.41;4854842;29;20426;-74
2021/10/17 08:53:41;;;;;;;35.10;21.23;;;;;;;10.89;81.92;100875.50;4855198;29;20422;-74
2021/10/17 08:56:06;;;;;;;35.40;21.27;;;;;;;10.88;81.98;100874.66;4856330;29;20921;-74
2021/10/17 08:58:32;;;;;;;32.97;21.07;;;;;;;10.91;81.72;100874.19;4848437;29;20480;-74
2021/10/17 09:01:13;;;;;;;31.03;19.93;;;;;;;10.95;81.92;100869.09;4857421;29;20418;-74
2021/10/17 09:03:39;;;;;;;33.08;21.58;;;;;;;10.99;81.69;100864.03;4839606;29;20414;-74
2021/10/17 09:06:35;;;;;;;36.47;24.33;;;;;;;11.01;81.75;100870.03;4857861;29;20515;-74
2021/10/17 09:09:07;;;;;;;36.30;24.03;;;;;;;11.02;81.67;100866.28;4848901;29;21009;-74
2021/10/17 09:11:44;;;;;;;37.83;24.27;;;;;;;11.00;81.43;100861.06;4852641;29;20435;-74
2021/10/17 09:14:16;;;;;;;36.25;23.35;;;;;;;10.99;81.64;100864.03;4847322;29;20420;-75
2021/10/17 09:16:44;;;;;;;38.75;24.30;;;;;;;11.01;81.60;100870.03;4859016;29;20483;-74
2021/10/17 09:19:16;;;;;;;35.10;23.00;;;;;;;11.03;81.22;100873.34;4855347;29;20513;-75
2021/10/17 09:21:58;;;;;;;32.42;21.55;;;;;;;11.01;81.48;100865.44;4837102;29;20462;-74
2021/10/17 09:24:25;;;;;;;30.45;20.73;;;;;;;11.01;81.85;100872.75;4858560;29;20410;-73
2021/10/17 09:27:05;;;;;;;33.70;21.05;;;;;;;11.08;81.69;100870.75;4858797;29;20928;-74
2021/10/17 09:29:32;;;;;;;29.33;19.60;;;;;;;11.09;81.50;100877.81;4854407;29;20442;-74
2021/10/17 09:31:57;;;;;;;27.20;19.30;;;;;;;11.07;81.60;100879.94;4842221;29;20929;-74
2021/10/17 09:34:29;;;;;;;31.33;21.23;;;;;;;11.07;81.80;100877.22;4847287;29;20458;-75
2021/10/17 09:37:12;;;;;;;30.08;18.40;;;;;;;11.13;81.50;100870.88;4858639;29;20418;-74
2021/10/17 09:39:43;;;;;;;29.02;19.27;;;;;;;11.15;81.50;100872.28;4857427;29;20414;-74
2021/10/17 09:42:17;;;;;;;32.40;20.42;;;;;;;11.19;81.32;100878.03;4856679;29;20438;-74
2021/10/17 09:44:42;;;;;;;30.33;19.30;;;;;;;11.20;81.13;100874.25;4857131;29;20509;-74
2021/10/17 09:47:08;;;;;;;30.57;20.30;;;;;;;11.19;80.98;100867.19;4858592;29;20489;-74
2021/10/17 09:49:34;;;;;;;33.00;20.80;;;;;;;11.19;81.28;100875.34;4841513;29;20831;-74
2021/10/17 09:52:19;;;;;;;31.10;20.15;;;;;;;11.21;81.11;100871.31;4840906;29;20839;-74
2021/10/17 09:55:05;;;;;;;33.42;20.95;;;;;;;11.26;81.10;100874.13;4841603;29;20489;-74
2021/10/17 09:57:30;;;;;;;27.58;18.88;;;;;;;11.29;81.14;100868.25;4856182;29;20477;-74
2021/10/17 09:59:56;;;;;;;30.70;20.60;;;;;;;11.30;81.04;100869.03;4855690;29;20454;-74
2021/10/17 10:02:23;;;;;;;33.07;20.47;;;;;;;11.31;80.92;100868.81;4858310;29;20450;-74
2021/10/17 10:04:49;;;;;;;28.98;20.13;;;;;;;11.31;80.91;100868.00;4858368;29;20418;-74
2021/10/17 10:07:22;;;;;;;30.38;19.75;;;;;;;11.30;80.81;100871.75;4837740;29;20430;-75
2021/10/17 10:09:48;;;;;;;31.63;19.63;;;;;;;11.31;81.09;100870.69;4856177;29;20426;-75
2021/10/17 10:12:17;;;;;;;32.95;20.52;;;;;;;11.34;80.68;100872.94;4834043;29;20464;-75
2021/10/17 10:14:46;;;;;;;31.95;21.20;;;;;;;11.39;80.71;100863.00;4839583;29;20516;-75
2021/10/17 10:17:13;;;;;;;38.10;24.08;;;;;;;11.46;80.37;100871.00;4847641;29;20920;-74
2021/10/17 10:19:39;;;;;;;32.75;21.75;;;;;;;11.46;80.23;100871.84;4841681;29;20521;-75
2021/10/17 10:22:05;;;;;;;33.13;22.13;;;;;;;11.50;80.43;100874.06;4844756;29;20504;-74
2021/10/17 10:24:32;;;;;;;30.30;20.50;;;;;;;11.46;80.30;100869.13;4842428;29;20573;-75
2021/10/17 10:26:58;;;;;;;28.90;18.55;;;;;;;11.44;79.96;100870.44;4843226;29;20435;-75
2021/10/17 10:29:25;;;;;;;29.25;19.15;;;;;;;11.42;79.91;100865.25;4843713;29;20434;-75
2021/10/17 10:32:02;;;;;;;29.58;20.38;;;;;;;11.37;80.51;100862.44;4840668;29;20437;-75
2021/10/17 10:34:36;;;;;;;41.40;24.90;;;;;;;11.35;80.72;100861.84;4835522;29;20521;-74
2021/10/17 10:37:16;;;;;;;31.63;20.90;;;;;;;11.35;81.08;100869.16;4834980;29;20569;-75
2021/10/17 10:40:00;;;;;;;35.08;20.08;;;;;;;11.32;80.77;100853.38;4817148;29;20501;-74
2021/10/17 10:42:46;;;;;;;48.42;25.55;;;;;;;11.28;81.13;100863.03;4834492;29;20933;-74
2021/10/17 10:45:20;;;;;;;37.95;21.55;;;;;;;11.31;81.15;100855.25;4834083;29;20453;-75
2021/10/17 10:47:49;;;;;;;34.90;21.27;;;;;;;11.37;80.78;100854.28;4833620;29;20421;-75
2021/10/17 10:50:32;;;;;;;29.70;20.15;;;;;;;11.43;79.96;100852.50;4820566;29;22978;-74
2021/10/17 10:52:57;;;;;;;34.83;22.77;;;;;;;11.44;80.18;100857.69;4833794;29;20449;-75
2021/10/17 10:55:45;;;;;;;41.07;23.33;;;;;;;11.43;80.45;100860.63;4839249;29;20434;-74
2021/10/17 10:58:27;;;;;;;46.35;25.55;;;;;;;11.38;80.25;100857.81;4837150;29;20441;-75
2021/10/17 11:00:56;;;;;;;74.97;33.88;;;;;;;11.33;80.44;100863.13;4821129;29;20998;-74
2021/10/17 11:03:25;;;;;;;78.28;32.83;;;;;;;11.31;80.35;100865.28;4836406;29;20437;-74
2021/10/17 11:06:06;;;;;;;103.93;39.33;;;;;;;11.28;80.56;100868.47;4849523;29;20426;-75
2021/10/17 11:08:33;;;;;;;83.25;35.33;;;;;;;11.26;80.30;100859.75;4845639;29;20434;-75